Time;durP1;ratioP1;P1;durP2;ratioP2;P2;SDS_P1;SDS_P2;PMS_P1;PMS_P2;Temp;Humidity;BMP_temperature;BMP_pressure;BME280_temperature;BME280_humidity;BME280_pressure;Samples;Min_cycle;Max_cycle;Signal;HPM_P1;HPM_P2
2021/08/25 01:04:13;;;;;;;;;;;20.00;99.90;;;;;;2616472;54;21622;-73
2021/08/25 01:06:39;;;;;;;;;;;20.30;99.90;;;;;;2618750;54;19969;-75
2021/08/25 01:09:06;;;;;;;;;;;20.00;99.90;;;;;;2619357;39;20310;-73
2021/08/25 01:11:32;;;;;;;;;;;20.00;99.90;;;;;;2619207;54;19942;-72
2021/08/25 01:13:58;;;;;;;;;;;20.00;99.90;;;;;;2619826;39;20287;-74
2021/08/25 01:16:24;;;;;;;;;;;19.90;99.90;;;;;;2619594;54;19942;-72
2021/08/25 01:18:50;;;;;;;;;;;19.90;99.90;;;;;;2619543;54;20038;-73
2021/08/25 01:21:18;;;;;;;;;;;20.00;99.90;;;;;;2619375;54;20406;-73
2021/08/25 01:23:45;;;;;;;;;;;20.00;99.90;;;;;;2619391;54;20429;-73
2021/08/25 01:26:11;;;;;;;;;;;20.00;99.90;;;;;;2618895;46;19935;-73
2021/08/25 01:28:44;;;;;;;;;;;20.00;99.90;;;;;;2618732;47;19958;-74
2021/08/25 01:31:12;;;;;;;;;;;20.00;99.90;;;;;;2619894;39;20339;-73
2021/08/25 01:33:38;;;;;;;;;;;20.00;99.90;;;;;;2620413;31;20416;-74
2021/08/25 01:36:04;;;;;;;;;;;19.90;99.90;;;;;;2619352;54;19962;-74
2021/08/25 01:38:33;;;;;;;;;;;19.90;99.90;;;;;;2618742;47;19939;-73
2021/08/25 01:40:59;;;;;;;;;;;19.90;99.90;;;;;;2619581;54;19938;-73
2021/08/25 01:43:24;;;;;;;;;;;19.90;99.90;;;;;;2619314;54;19935;-74
2021/08/25 01:45:50;;;;;;;;;;;19.90;99.90;;;;;;2619746;39;20347;-73
2021/08/25 01:48:19;;;;;;;;;;;19.90;99.90;;;;;;2619276;54;19938;-73
2021/08/25 01:50:44;;;;;;;;;;;20.00;99.70;;;;;;2619172;54;19953;-73
2021/08/25 01:53:10;;;;;;;;;;;20.00;99.80;;;;;;2619104;54;20403;-73
2021/08/25 01:55:36;;;;;;;;;;;19.90;99.90;;;;;;2619234;54;19943;-72
2021/08/25 01:58:02;;;;;;;;;;;19.90;99.90;;;;;;2619222;54;19942;-73
2021/08/25 02:00:27;;;;;;;;;;;19.90;99.90;;;;;;2619080;54;19935;-73
2021/08/25 02:02:53;;;;;;;;;;;19.90;99.90;;;;;;2618373;47;19948;-73
2021/08/25 02:05:21;;;;;;;;;;;19.90;99.90;;;;;;2618784;47;19950;-74
2021/08/25 02:07:47;;;;;;;;;;;19.90;99.90;;;;;;2618927;54;19971;-73
2021/08/25 02:10:13;;;;;;;;;;;19.90;99.90;;;;;;2619152;54;19963;-73
2021/08/25 02:12:39;;;;;;;;;;;19.80;99.90;;;;;;2618955;54;19935;-74
2021/08/25 02:15:05;;;;;;;;;;;19.80;99.90;;;;;;2619391;54;19935;-70
2021/08/25 02:17:31;;;;;;;;;;;19.80;99.90;;;;;;2618902;54;19938;-69
2021/08/25 02:19:57;;;;;;;;;;;19.80;99.90;;;;;;2618923;54;19985;-69
2021/08/25 02:22:25;;;;;;;;;;;19.80;99.90;;;;;;2618917;54;20014;-69
2021/08/25 02:24:51;;;;;;;;;;;19.80;99.90;;;;;;2618895;54;19957;-68
2021/08/25 02:27:17;;;;;;;;;;;19.80;99.90;;;;;;2618811;54;19950;-69
2021/08/25 02:29:42;;;;;;;;;;;19.80;99.90;;;;;;2618904;54;20403;-69
2021/08/25 02:32:08;;;;;;;;;;;19.90;99.90;;;;;;2618781;39;20338;-69
2021/08/25 02:34:34;;;;;;;;;;;19.90;99.90;;;;;;2618813;54;19938;-69
2021/08/25 02:37:00;;;;;;;;;;;19.90;99.90;;;;;;2618143;47;19942;-69
2021/08/25 02:39:28;;;;;;;;;;;19.90;99.90;;;;;;2618786;54;19939;-69
2021/08/25 02:41:54;;;;;;;;;;;19.90;99.90;;;;;;2618572;54;19942;-69
2021/08/25 02:44:19;;;;;;;;;;;19.90;99.90;;;;;;2618910;54;20042;-69
2021/08/25 02:46:45;;;;;;;;;;;19.90;99.90;;;;;;2618710;54;19935;-69
2021/08/25 02:49:11;;;;;;;;;;;19.90;99.90;;;;;;2618803;54;20407;-70
2021/08/25 02:51:36;;;;;;;;;;;19.90;99.90;;;;;;2618746;54;19969;-69
2021/08/25 02:54:02;;;;;;;;;;;20.00;99.90;;;;;;2618715;54;19938;-69
2021/08/25 02:56:30;;;;;;;;;;;20.00;99.90;;;;;;2618097;47;19934;-69
2021/08/25 02:58:56;;;;;;;;;;;20.00;99.90;;;;;;2618205;47;19959;-69
2021/08/25 03:01:22;;;;;;;;;;;20.00;99.90;;;;;;2618142;47;19946;-69
2021/08/25 03:03:48;;;;;;;;;;;20.00;99.90;;;;;;2618668;54;19935;-68
2021/08/25 03:06:13;;;;;;;;;;;19.90;99.90;;;;;;2618927;54;19945;-69
2021/08/25 03:08:39;;;;;;;;;;;19.90;99.90;;;;;;2618624;54;20449;-69
2021/08/25 03:11:07;;;;;;;;;;;19.90;99.90;;;;;;2618567;54;19934;-69
2021/08/25 03:13:36;;;;;;;;;;;19.80;99.90;;;;;;2618674;54;20034;-69
2021/08/25 03:16:01;;;;;;;;;;;19.90;99.90;;;;;;2618744;54;19946;-69
2021/08/25 03:18:27;;;;;;;;;;;19.90;99.90;;;;;;2618679;54;19947;-69
2021/08/25 03:20:53;;;;;;;;;;;19.90;99.90;;;;;;2618661;54;19939;-70
2021/08/25 03:23:19;;;;;;;;;;;19.90;99.90;;;;;;2618887;54;19938;-68
2021/08/25 03:25:44;;;;;;;;;;;19.90;99.90;;;;;;2619557;54;19942;-68
2021/08/25 03:28:10;;;;;;;;;;;20.00;99.90;;;;;;2619458;54;20418;-69
2021/08/25 03:30:38;;;;;;;;;;;20.00;99.90;;;;;;2619488;54;19938;-69
2021/08/25 03:33:04;;;;;;;;;;;20.00;99.90;;;;;;2618795;47;19934;-68
2021/08/25 03:35:30;;;;;;;;;;;20.00;99.90;;;;;;2619523;54;19973;-69
2021/08/25 03:37:56;;;;;;;;;;;19.90;99.90;;;;;;2618673;46;19934;-69
2021/08/25 03:40:22;;;;;;;;;;;19.80;99.90;;;;;;2619373;54;19939;-69
2021/08/25 03:42:48;;;;;;;;;;;19.80;99.90;;;;;;2618634;47;19939;-68
2021/08/25 03:45:14;;;;;;;;;;;19.70;99.90;;;;;;2619376;54;19939;-70
2021/08/25 03:47:42;;;;;;;;;;;19.70;99.90;;;;;;2619321;54;19973;-69
2021/08/25 03:50:09;;;;;;;;;;;19.70;99.90;;;;;;2619250;54;19942;-68
2021/08/25 03:52:34;;;;;;;;;;;19.70;99.90;;;;;;2619726;39;20354;-69
2021/08/25 03:55:00;;;;;;;;;;;19.70;99.90;;;;;;2619354;54;19934;-69
2021/08/25 03:57:26;;;;;;;;;;;19.70;99.90;;;;;;2619281;54;19939;-68
2021/08/25 03:59:52;;;;;;;;;;;19.60;99.90;;;;;;2619145;54;19943;-67
2021/08/25 04:02:17;;;;;;;;;;;19.50;99.90;;;;;;2619623;39;20339;-69
2021/08/25 04:04:46;;;;;;;;;;;19.40;99.90;;;;;;2619107;54;19977;-69
2021/08/25 04:07:12;;;;;;;;;;;19.40;99.90;;;;;;2619393;54;19943;-68
2021/08/25 04:09:38;;;;;;;;;;;19.40;99.90;;;;;;2618710;47;19959;-68
2021/08/25 04:12:04;;;;;;;;;;;19.40;99.90;;;;;;2619139;54;19938;-68
2021/08/25 04:14:30;;;;;;;;;;;19.30;99.90;;;;;;2619278;54;19939;-68
2021/08/25 04:16:55;;;;;;;;;;;19.20;99.90;;;;;;2619148;54;19939;-69
2021/08/25 04:19:21;;;;;;;;;;;19.20;99.90;;;;;;2619191;54;19943;-67
2021/08/25 04:21:49;;;;;;;;;;;19.00;99.90;;;;;;2619252;54;19945;-68
2021/08/25 04:24:15;;;;;;;;;;;18.80;99.90;;;;;;2618975;54;19934;-68
2021/08/25 04:26:41;;;;;;;;;;;18.60;99.90;;;;;;2618911;54;20020;-67
2021/08/25 04:29:07;;;;;;;;;;;18.60;99.90;;;;;;2619027;54;20020;-68
2021/08/25 04:31:33;;;;;;;;;;;18.50;99.90;;;;;;2619172;54;19939;-68
2021/08/25 04:33:59;;;;;;;;;;;18.50;99.90;;;;;;2619513;39;20310;-67
2021/08/25 04:36:24;;;;;;;;;;;18.40;99.90;;;;;;2618837;54;19935;-68
2021/08/25 04:38:53;;;;;;;;;;;18.30;99.90;;;;;;2619203;54;19935;-68
2021/08/25 04:41:18;;;;;;;;;;;18.30;99.90;;;;;;2619105;54;19975;-67
2021/08/25 04:43:44;;;;;;;;;;;18.30;99.90;;;;;;2619529;39;20445;-67
2021/08/25 04:46:14;;;;;;;;;;;18.20;99.90;;;;;;2619133;54;19947;-67
2021/08/25 04:48:40;;;;;;;;;;;18.20;99.90;;;;;;2619163;54;19935;-68
2021/08/25 04:51:06;;;;;;;;;;;18.20;99.90;;;;;;2619067;54;19938;-70
2021/08/25 04:53:31;;;;;;;;;;;18.10;99.90;;;;;;2619110;54;19938;-68
2021/08/25 04:56:00;;;;;;;;;;;18.10;99.90;;;;;;2619284;54;19934;-68
2021/08/25 04:58:25;;;;;;;;;;;18.10;99.90;;;;;;2618445;54;19942;-68
2021/08/25 05:00:51;;;;;;;;;;;18.10;99.90;;;;;;2618949;54;19962;-69
2021/08/25 05:03:17;;;;;;;;;;;18.10;99.90;;;;;;2619150;54;19938;-69
2021/08/25 05:05:43;;;;;;;;;;;18.10;99.90;;;;;;2619266;54;19939;-70
2021/08/25 05:08:08;;;;;;;;;;;18.00;99.90;;;;;;2619342;54;20405;-69
2021/08/25 05:10:34;;;;;;;;;;;18.00;99.90;;;;;;2619961;31;20352;-69
2021/08/25 05:13:02;;;;;;;;;;;18.00;99.90;;;;;;2619165;54;19934;-69
2021/08/25 05:15:28;;;;;;;;;;;17.90;99.90;;;;;;2618739;47;19943;-68
2021/08/25 05:17:54;;;;;;;;;;;17.90;99.90;;;;;;2619314;54;20020;-69
2021/08/25 05:20:20;;;;;;;;;;;17.90;99.90;;;;;;2619145;54;19935;-70
2021/08/25 05:22:45;;;;;;;;;;;17.90;99.90;;;;;;2618895;54;19938;-70
2021/08/25 05:25:11;;;;;;;;;;;18.00;99.90;;;;;;2618794;39;20311;-70
2021/08/25 05:27:37;;;;;;;;;;;18.00;99.90;;;;;;2619144;54;20030;-69
2021/08/25 05:30:06;;;;;;;;;;;18.00;99.90;;;;;;2619028;54;19966;-69
2021/08/25 05:32:31;;;;;;;;;;;18.10;99.90;;;;;;2619310;39;20351;-68
2021/08/25 05:34:57;;;;;;;;;;;18.10;99.90;;;;;;2618928;54;19938;-68
2021/08/25 05:37:23;;;;;;;;;;;18.10;99.90;;;;;;2619025;54;19939;-69
2021/08/25 05:39:49;;;;;;;;;;;18.20;99.90;;;;;;2618835;54;19939;-68
2021/08/25 05:42:15;;;;;;;;;;;18.20;99.90;;;;;;2619092;54;19938;-69
2021/08/25 05:44:40;;;;;;;;;;;18.20;99.90;;;;;;2618063;47;19947;-69
2021/08/25 05:47:09;;;;;;;;;;;18.10;99.90;;;;;;2618638;54;19942;-69
2021/08/25 05:49:35;;;;;;;;;;;18.10;99.90;;;;;;2618871;54;19973;-68
2021/08/25 05:52:00;;;;;;;;;;;18.10;99.90;;;;;;2618781;54;19950;-69
2021/08/25 05:54:26;;;;;;;;;;;18.10;99.90;;;;;;2618789;54;19935;-69
2021/08/25 05:56:52;;;;;;;;;;;18.20;99.90;;;;;;2618467;47;19941;-68
2021/08/25 05:59:18;;;;;;;;;;;18.20;99.90;;;;;;2619005;54;19934;-69
2021/08/25 06:01:43;;;;;;;;;;;18.20;99.90;;;;;;2618955;54;19934;-69
2021/08/25 06:04:12;;;;;;;;;;;18.20;99.90;;;;;;2618761;54;19942;-69
2021/08/25 06:06:38;;;;;;;;;;;18.20;99.90;;;;;;2618994;54;19934;-68
2021/08/25 06:09:04;;;;;;;;;;;18.20;99.90;;;;;;2618895;54;19941;-70
2021/08/25 06:11:30;;;;;;;;;;;18.10;99.90;;;;;;2618977;54;19938;-69
2021/08/25 06:13:56;;;;;;;;;;;18.20;99.90;;;;;;2618980;54;19959;-68
2021/08/25 06:16:21;;;;;;;;;;;18.20;99.90;;;;;;2618875;54;19945;-69
